Bookmark and Share
Track history (hours):
 

Ms Signal

Last reported at 2014-Mar-05 13:12 UTC. Time now 2014-Apr-21 12:14 UTC.
Position N 59°21' E 018°08'.
Warning: this ship's position is 46 days out of date.

Length 16 m.

Type: Diving. MMSI: 265648340.

NotesDate/timePositionNaut miles runAvg speedWind from/ knotsBaromVisibWave heightAir tempDewpointWater temp
2014-Mar-05 13:12N 59°21' E 018°08'5 7.2
2014-Mar-05 12:33N 59°24' E 018°01'0 0.4
2014-Mar-05 11:33N 59°24' E 018°00'0 0.0
2014-Mar-05 10:33N 59°24' E 018°00'0 0.2
2014-Mar-05 09:23N 59°24' E 018°01'0 0.2
2014-Mar-05 08:32N 59°24' E 018°01'0 0.2
2014-Mar-05 07:30N 59°24' E 018°01'0 0.0
2014-Mar-04 14:22N 59°24' E 018°01'0 0.0
2014-Mar-04 13:33N 59°24' E 018°01'0 0.0
2014-Mar-04 12:32N 59°24' E 018°01'0 0.0
2014-Mar-04 11:32N 59°24' E 018°01'1 1.0
2014-Mar-04 10:28N 59°23' E 018°02'1 1.5
2014-Mar-04 09:31N 59°22' E 018°05'1 0.9
2014-Mar-04 08:17N 59°22' E 018°07'0 0.2
2014-Mar-04 07:33N 59°22' E 018°07'1 1.4
2014-Mar-04 06:33N 59°21' E 018°08'1 0.1
2014-Mar-03 10:32N 59°22' E 018°07'4 3.5
2014-Mar-03 09:30N 59°24' E 018°01'1 1.3
2014-Mar-03 08:31N 59°23' E 018°03'2 1.7
2014-Mar-03 07:33N 59°22' E 018°05'  
2014-Feb-28 12:34N 59°21' E 018°08'1 0.4
2014-Feb-28 10:10N 59°22' E 018°07'0 0.1
2014-Feb-28 09:33N 59°22' E 018°07'0 0.0
2014-Feb-28 06:28N 59°22' E 018°07'4 0.4
2014-Feb-27 19:32N 59°24' E 018°01'0 0.0
2014-Feb-27 18:32N 59°24' E 018°01'2 2.5
2014-Feb-27 17:33N 59°23' E 018°06'5 2.2
2014-Feb-27 15:32N 59°19' E 018°09'2 1.6
2014-Feb-27 14:26N 59°19' E 018°06'2 2.4
2014-Feb-27 13:33N 59°20' E 018°09'1 0.2
2014-Feb-27 07:14N 59°22' E 018°07'0 0.3
2014-Feb-27 06:12N 59°21' E 018°07'0 0.0
2014-Feb-26 17:33N 59°22' E 018°07'0 0.1
2014-Feb-26 15:06N 59°22' E 018°06'4 6.8
2014-Feb-26 14:33N 59°24' E 018°00'4 0.6
2014-Feb-26 07:33N 59°21' E 018°07'1 0.1
2014-Feb-25 19:33N 59°21' E 018°08'1 0.8
2014-Feb-25 18:09N 59°22' E 018°07'0 0.0
2014-Feb-25 08:31N 59°22' E 018°07'0 0.1
2014-Feb-25 07:33N 59°22' E 018°07'1 1.1
2014-Feb-25 06:33N 59°21' E 018°08'1 0.1
2014-Feb-24 13:33N 59°22' E 018°07'0 0.0
2014-Feb-24 12:30N 59°22' E 018°07'2 1.9
2014-Feb-24 11:33N 59°20' E 018°09'2 2.0
2014-Feb-24 10:31N 59°20' E 018°05'0 0.1
2014-Feb-24 08:33N 59°20' E 018°05'0 0.0
2014-Feb-24 07:33N 59°20' E 018°05'2 2.2
2014-Feb-24 06:32N 59°20' E 018°09'  

Dump ship's entire track history

sailing weather and tide predictions

Ms Signal — SFWL — position and weather